createdAt,value
2024-03-01T00:00:50.584Z,6.20
2024-03-01T00:03:17.673Z,6.20
2024-03-01T00:05:44.469Z,6.20
2024-03-01T00:08:11.348Z,6.20
2024-03-01T00:10:38.194Z,6.20
2024-03-01T00:13:05.186Z,6.20
2024-03-01T00:15:32.351Z,6.10
2024-03-01T00:17:59.215Z,6.10
2024-03-01T00:20:26.031Z,6.10
2024-03-01T00:22:54.944Z,6.10
2024-03-01T00:25:21.887Z,6.10
2024-03-01T00:27:48.772Z,6.00
2024-03-01T00:30:16.824Z,6.00
2024-03-01T00:32:43.730Z,6.00
2024-03-01T00:35:10.890Z,6.00
2024-03-01T00:37:37.750Z,5.90
2024-03-01T00:40:05.384Z,5.90
2024-03-01T00:42:32.566Z,5.90
2024-03-01T00:44:59.454Z,5.90
2024-03-01T00:47:26.389Z,5.90
2024-03-01T00:49:54.413Z,5.90
2024-03-01T00:52:21.294Z,5.90
2024-03-01T00:54:48.133Z,5.80
2024-03-01T00:57:16.062Z,5.80
2024-03-01T00:59:43.109Z,5.80
2024-03-01T01:02:10.333Z,5.80
2024-03-01T01:04:37.548Z,5.70
2024-03-01T01:07:04.489Z,5.70
2024-03-01T01:09:31.402Z,5.70
2024-03-01T01:11:58.670Z,5.70
2024-03-01T01:14:25.511Z,5.60
2024-03-01T01:16:52.337Z,5.60
2024-03-01T01:19:19.208Z,5.60
2024-03-01T01:21:46.025Z,5.60
2024-03-01T01:24:12.861Z,5.60
2024-03-01T01:26:39.816Z,5.50
2024-03-01T01:29:06.668Z,5.50
2024-03-01T01:31:33.581Z,5.50
2024-03-01T01:34:00.494Z,5.50
2024-03-01T01:36:27.403Z,5.50
2024-03-01T01:38:54.447Z,5.50
2024-03-01T01:41:21.830Z,5.50
2024-03-01T01:43:49.097Z,5.40
2024-03-01T01:46:17.511Z,5.40
2024-03-01T01:48:45.185Z,5.40
2024-03-01T01:51:18.061Z,5.40
2024-03-01T01:53:45.464Z,5.40
2024-03-01T01:56:15.214Z,5.30
2024-03-01T01:58:44.513Z,5.30
2024-03-01T02:01:12.472Z,5.30
2024-03-01T02:03:40.299Z,5.20
2024-03-01T02:06:08.087Z,5.20
2024-03-01T02:08:36.997Z,5.20
2024-03-01T02:11:05.754Z,5.20
2024-03-01T02:13:33.356Z,5.20
2024-03-01T02:16:00.704Z,5.20
2024-03-01T02:18:28.593Z,5.20
2024-03-01T02:21:11.651Z,5.20
2024-03-01T02:23:39.332Z,5.20
2024-03-01T02:26:07.469Z,5.20
2024-03-01T02:28:43.834Z,5.20
2024-03-01T02:31:11.221Z,5.20
2024-03-01T02:33:38.110Z,5.20
2024-03-01T02:36:06.195Z,5.20
2024-03-01T02:38:33.244Z,5.20
2024-03-01T02:41:00.789Z,5.20
2024-03-01T02:43:27.888Z,5.30
2024-03-01T02:45:55.060Z,5.30
2024-03-01T02:48:21.910Z,5.30
2024-03-01T02:50:48.978Z,5.30
2024-03-01T02:53:15.803Z,5.30
2024-03-01T02:55:42.674Z,5.30
2024-03-01T02:58:09.554Z,5.30
2024-03-01T03:00:36.526Z,5.30
2024-03-01T03:03:03.535Z,5.40
2024-03-01T03:05:30.343Z,5.40
2024-03-01T03:07:57.287Z,5.40
2024-03-01T03:10:24.589Z,5.50
2024-03-01T03:12:51.467Z,5.50
2024-03-01T03:15:18.588Z,5.60
2024-03-01T03:17:46.180Z,5.60
2024-03-01T03:20:16.596Z,5.60
2024-03-01T03:22:46.907Z,5.70
2024-03-01T03:25:16.073Z,5.70
2024-03-01T03:27:44.374Z,5.70
2024-03-01T03:30:12.396Z,5.80
2024-03-01T03:32:39.354Z,5.80
2024-03-01T03:35:06.837Z,5.90
2024-03-01T03:37:34.109Z,5.90
2024-03-01T03:40:01.277Z,5.90
2024-03-01T03:42:28.261Z,6.00
2024-03-01T03:44:55.181Z,6.00
2024-03-01T03:47:21.997Z,6.10
2024-03-01T03:49:49.193Z,6.10
2024-03-01T03:52:16.310Z,6.10
2024-03-01T03:54:43.702Z,6.20
2024-03-01T03:57:10.866Z,6.20
2024-03-01T03:59:37.781Z,6.30
2024-03-01T04:02:04.987Z,6.30
2024-03-01T04:04:32.020Z,6.30
2024-03-01T04:06:59.080Z,6.40
2024-03-01T04:09:26.384Z,6.40
2024-03-01T04:11:54.197Z,6.40
2024-03-01T04:14:21.266Z,6.50
2024-03-01T04:16:48.188Z,6.50
2024-03-01T04:19:15.402Z,6.60
2024-03-01T04:21:43.912Z,6.60
2024-03-01T04:24:13.803Z,6.70
2024-03-01T04:26:41.249Z,6.70
2024-03-01T04:29:09.025Z,6.80
2024-03-01T04:31:37.666Z,6.90
2024-03-01T04:34:07.098Z,7.00
2024-03-01T04:36:34.287Z,7.10
2024-03-01T04:39:01.738Z,7.20
2024-03-01T04:41:29.185Z,7.30
2024-03-01T04:43:56.624Z,7.30
2024-03-01T04:46:23.703Z,7.40
2024-03-01T04:48:54.244Z,7.50
2024-03-01T04:51:24.821Z,7.60
2024-03-01T04:53:52.372Z,7.60
2024-03-01T04:56:19.344Z,7.70
2024-03-01T04:58:46.263Z,7.80
2024-03-01T05:01:13.200Z,7.80
2024-03-01T05:03:44.919Z,7.90
2024-03-01T05:06:12.349Z,8.00
2024-03-01T05:08:39.397Z,8.00
2024-03-01T05:11:06.543Z,8.10
2024-03-01T05:13:34.008Z,8.20
2024-03-01T05:16:01.766Z,8.20
2024-03-01T05:18:28.746Z,8.30
2024-03-01T05:20:55.606Z,8.30
2024-03-01T05:23:25.175Z,8.40
2024-03-01T05:25:53.459Z,8.50
2024-03-01T05:28:20.586Z,8.50
2024-03-01T05:30:51.713Z,8.50
2024-03-01T05:33:20.781Z,8.60
2024-03-01T05:35:47.840Z,8.60
2024-03-01T05:38:14.921Z,8.70
2024-03-01T05:40:47.123Z,8.70
2024-03-01T05:43:25.437Z,8.70
2024-03-01T05:45:53.049Z,8.80
2024-03-01T05:48:20.253Z,8.90
2024-03-01T05:50:47.433Z,8.90
2024-03-01T05:53:16.424Z,8.90
2024-03-01T05:55:44.351Z,9.00
2024-03-01T05:58:11.794Z,9.00
2024-03-01T06:00:42.368Z,9.10
2024-03-01T06:03:10.185Z,9.10
2024-03-01T06:05:37.344Z,9.20
2024-03-01T06:08:04.803Z,9.20
2024-03-01T06:10:31.761Z,9.30
2024-03-01T06:12:59.554Z,9.30
2024-03-01T06:15:27.345Z,9.30
2024-03-01T06:17:54.392Z,9.40
2024-03-01T06:20:21.538Z,9.40
2024-03-01T06:22:48.438Z,9.40
2024-03-01T06:25:15.435Z,9.50
2024-03-01T06:27:42.338Z,9.50
2024-03-01T06:30:09.736Z,9.50
2024-03-01T06:32:36.805Z,9.60
2024-03-01T06:35:05.070Z,9.60
2024-03-01T06:37:32.338Z,9.70
2024-03-01T06:39:59.727Z,9.70
2024-03-01T06:42:26.825Z,9.80
2024-03-01T06:44:53.950Z,9.80
2024-03-01T06:47:22.794Z,9.80
2024-03-01T06:49:51.053Z,9.90
2024-03-01T06:52:17.996Z,9.90
2024-03-01T06:54:47.897Z,9.90
2024-03-01T06:57:14.790Z,10.00
2024-03-01T06:59:41.833Z,10.00
2024-03-01T07:02:09.997Z,10.10
2024-03-01T07:04:37.172Z,10.10
2024-03-01T07:07:05.017Z,10.10
2024-03-01T07:09:34.628Z,10.20
2024-03-01T07:12:01.676Z,10.20
2024-03-01T07:14:28.502Z,10.20
2024-03-01T07:16:55.309Z,10.30
2024-03-01T07:19:22.217Z,10.30
2024-03-01T07:21:49.282Z,10.40
2024-03-01T07:24:16.188Z,10.40
2024-03-01T07:26:43.002Z,10.40
2024-03-01T07:29:10.148Z,10.40
2024-03-01T07:31:37.098Z,10.50
2024-03-01T07:34:04.370Z,10.50
2024-03-01T07:36:31.233Z,10.50
2024-03-01T07:38:58.125Z,10.60
2024-03-01T07:41:25.015Z,10.60
2024-03-01T07:43:53.418Z,10.70
2024-03-01T07:46:20.560Z,10.70
2024-03-01T07:48:48.265Z,10.70
2024-03-01T07:51:15.870Z,10.80
2024-03-01T07:53:43.955Z,10.80
2024-03-01T07:56:11.715Z,10.90
2024-03-01T07:58:38.786Z,10.90
2024-03-01T08:01:06.739Z,10.90
2024-03-01T08:03:36.303Z,11.00
2024-03-01T08:06:03.950Z,11.00
2024-03-01T08:08:41.598Z,11.10
2024-03-01T08:11:10.491Z,11.10
2024-03-01T08:13:38.483Z,11.20
2024-03-01T08:16:12.027Z,11.20
2024-03-01T08:18:43.294Z,11.20
2024-03-01T08:21:16.917Z,11.30
2024-03-01T08:23:44.799Z,11.30
2024-03-01T08:26:25.016Z,11.30
2024-03-01T08:28:53.526Z,11.40
2024-03-01T08:31:37.764Z,11.40
2024-03-01T08:34:15.960Z,11.40
2024-03-01T08:36:43.072Z,11.50
2024-03-01T08:39:18.561Z,11.50
2024-03-01T08:41:55.390Z,11.50
2024-03-01T08:44:51.701Z,11.60
2024-03-01T08:47:38.771Z,11.60
2024-03-01T08:50:42.282Z,11.70
2024-03-01T08:53:57.554Z,11.80
2024-03-01T08:56:37.510Z,11.90
2024-03-01T08:59:48.960Z,11.90
2024-03-01T09:02:27.830Z,12.00
2024-03-01T09:04:55.480Z,12.00
2024-03-01T09:07:30.556Z,12.00
2024-03-01T09:09:57.921Z,12.10
2024-03-01T09:12:27.714Z,12.10
2024-03-01T09:15:05.253Z,12.20
2024-03-01T09:17:32.908Z,12.20
2024-03-01T09:19:59.968Z,12.30
2024-03-01T09:22:27.192Z,12.30
2024-03-01T09:24:55.655Z,12.30
2024-03-01T09:27:33.283Z,12.30
2024-03-01T09:30:12.480Z,12.40
2024-03-01T09:32:39.511Z,12.40
2024-03-01T09:35:07.562Z,12.40
2024-03-01T09:37:34.740Z,12.50
2024-03-01T09:40:02.692Z,12.50
2024-03-01T09:42:47.836Z,12.50
2024-03-01T09:45:41.584Z,12.50
2024-03-01T09:48:34.181Z,12.60
2024-03-01T09:51:11.113Z,12.60
2024-03-01T09:54:14.715Z,12.70
2024-03-01T09:57:40.892Z,12.70
2024-03-01T10:00:23.383Z,12.70
2024-03-01T10:03:04.592Z,12.80
2024-03-01T10:05:59.646Z,12.80
2024-03-01T10:09:06.362Z,12.80
2024-03-01T10:12:10.188Z,12.70
2024-03-01T10:14:39.952Z,12.80
2024-03-01T10:17:28.475Z,12.70
2024-03-01T10:20:16.965Z,12.70
2024-03-01T10:23:01.434Z,12.70
2024-03-01T10:25:59.049Z,12.70
2024-03-01T10:29:05.638Z,12.70
2024-03-01T10:32:04.768Z,12.70
2024-03-01T10:35:06.882Z,12.60
2024-03-01T10:37:51.986Z,12.60
2024-03-01T10:40:21.050Z,12.60
2024-03-01T10:43:32.459Z,12.50
2024-03-01T10:46:25.040Z,12.50
2024-03-01T10:49:16.661Z,12.50
2024-03-01T10:51:54.077Z,12.40
2024-03-01T10:54:23.280Z,12.40
2024-03-01T10:56:51.356Z,12.40
2024-03-01T11:00:01.256Z,12.30
2024-03-01T11:02:34.765Z,12.30
2024-03-01T11:05:27.963Z,12.20
2024-03-01T11:08:23.502Z,12.20
2024-03-01T11:11:12.372Z,12.20
2024-03-01T11:13:43.962Z,12.20
2024-03-01T11:16:19.774Z,12.30
2024-03-01T11:18:51.909Z,12.30
2024-03-01T11:21:24.474Z,12.40
2024-03-01T11:23:58.164Z,12.40
2024-03-01T11:26:45.135Z,12.50
2024-03-01T11:29:21.848Z,12.50
2024-03-01T11:31:57.455Z,12.60
2024-03-01T11:34:53.731Z,12.80
2024-03-01T11:37:39.517Z,12.90
2024-03-01T11:40:15.452Z,13.00
2024-03-01T11:42:53.579Z,13.10
2024-03-01T11:46:20.929Z,13.20
2024-03-01T11:49:47.884Z,13.30
2024-03-01T11:52:56.836Z,13.40
2024-03-01T11:55:57.241Z,13.50
2024-03-01T11:59:17.219Z,13.60
2024-03-01T12:02:17.259Z,13.60
2024-03-01T12:05:04.418Z,13.60
2024-03-01T12:07:51.899Z,13.70
2024-03-01T12:10:52.614Z,13.80
2024-03-01T12:13:20.437Z,13.90
2024-03-01T12:16:04.737Z,14.00
2024-03-01T12:19:01.004Z,14.00
2024-03-01T12:22:04.899Z,14.10
2024-03-01T12:24:38.426Z,14.10
2024-03-01T12:27:15.639Z,14.10
2024-03-01T12:30:25.871Z,14.20
2024-03-01T12:33:34.885Z,14.30
2024-03-01T12:36:50.417Z,14.30
2024-03-01T12:39:21.780Z,14.40
2024-03-01T12:42:07.415Z,14.30
2024-03-01T12:44:57.519Z,14.30
2024-03-01T12:48:22.621Z,14.30
2024-03-01T12:51:20.836Z,14.40
2024-03-01T12:54:04.032Z,14.50
2024-03-01T12:57:03.595Z,14.50
2024-03-01T12:59:49.397Z,14.60
2024-03-01T13:02:56.016Z,14.70
2024-03-01T13:05:29.026Z,14.70
2024-03-01T13:07:58.521Z,14.80
2024-03-01T13:10:26.737Z,14.80
2024-03-01T13:13:00.396Z,14.80
2024-03-01T13:15:39.741Z,14.80
2024-03-01T13:18:16.743Z,14.80
2024-03-01T13:21:30.160Z,14.90
2024-03-01T13:24:26.660Z,14.90
2024-03-01T13:27:09.460Z,14.90
2024-03-01T13:29:41.769Z,15.00
2024-03-01T13:32:22.542Z,15.00
2024-03-01T13:34:57.999Z,15.10
2024-03-01T13:37:34.040Z,15.10
2024-03-01T13:40:18.630Z,15.10
2024-03-01T13:43:04.528Z,15.10
2024-03-01T13:45:42.498Z,15.10
2024-03-01T13:48:24.749Z,15.10
2024-03-01T13:50:51.922Z,15.00
2024-03-01T13:53:19.972Z,15.00
2024-03-01T13:55:48.957Z,15.00
2024-03-01T13:58:19.636Z,14.90
2024-03-01T14:00:58.189Z,14.80
2024-03-01T14:03:26.290Z,14.80
2024-03-01T14:05:57.321Z,14.70
2024-03-01T14:08:25.847Z,14.70
2024-03-01T14:10:54.525Z,14.60
2024-03-01T14:13:27.164Z,14.50
2024-03-01T14:16:04.997Z,14.50
2024-03-01T14:18:32.447Z,14.40
2024-03-01T14:20:59.722Z,14.40
2024-03-01T14:23:27.972Z,14.40
2024-03-01T14:25:55.367Z,14.30
2024-03-01T14:28:22.520Z,14.30
2024-03-01T14:30:49.893Z,14.20
2024-03-01T14:33:25.129Z,14.20
2024-03-01T14:36:07.207Z,14.20
2024-03-01T14:38:34.996Z,14.20
2024-03-01T14:41:05.269Z,14.20
2024-03-01T14:43:47.602Z,14.10
2024-03-01T14:46:33.816Z,14.10
2024-03-01T14:49:03.270Z,14.00
2024-03-01T14:51:31.147Z,14.00
2024-03-01T14:53:59.093Z,14.00
2024-03-01T14:56:26.419Z,14.00
2024-03-01T14:58:53.748Z,14.00
2024-03-01T15:01:21.460Z,14.00
2024-03-01T15:03:49.731Z,13.90
2024-03-01T15:06:16.804Z,13.90
2024-03-01T15:08:43.971Z,13.90
2024-03-01T15:11:16.963Z,13.80
2024-03-01T15:13:44.184Z,13.80
2024-03-01T15:16:27.631Z,13.80
2024-03-01T15:19:01.309Z,13.80
2024-03-01T15:21:28.285Z,13.70
2024-03-01T15:23:59.305Z,13.70
2024-03-01T15:26:26.478Z,13.70
2024-03-01T15:28:53.465Z,13.70
2024-03-01T15:31:21.368Z,13.70
2024-03-01T15:33:48.571Z,13.70
2024-03-01T15:36:15.921Z,13.60
2024-03-01T15:38:44.328Z,13.60
2024-03-01T15:41:11.208Z,13.60
2024-03-01T15:43:38.479Z,13.50
2024-03-01T15:46:06.292Z,13.50
2024-03-01T15:48:33.565Z,13.50
2024-03-01T15:51:00.541Z,13.50
2024-03-01T15:53:27.991Z,13.50
2024-03-01T15:56:01.357Z,13.50
2024-03-01T15:58:28.788Z,13.50
2024-03-01T16:00:56.467Z,13.50
2024-03-01T16:03:23.720Z,13.40
2024-03-01T16:05:52.523Z,13.40
2024-03-01T16:08:24.374Z,13.40
2024-03-01T16:10:57.868Z,13.40
2024-03-01T16:13:35.748Z,13.30
2024-03-01T16:16:06.564Z,13.30
2024-03-01T16:18:38.414Z,13.30
2024-03-01T16:21:07.475Z,13.30
2024-03-01T16:23:40.937Z,13.30
2024-03-01T16:26:19.261Z,13.20
2024-03-01T16:28:52.696Z,13.20
2024-03-01T16:31:20.248Z,13.20
2024-03-01T16:33:47.398Z,13.20
2024-03-01T16:36:20.017Z,13.20
2024-03-01T16:38:47.670Z,13.20
2024-03-01T16:41:40.569Z,13.10
2024-03-01T16:44:32.200Z,13.10
2024-03-01T16:47:00.903Z,13.10
2024-03-01T16:49:43.887Z,13.00
2024-03-01T16:52:14.772Z,13.10
2024-03-01T16:54:46.823Z,13.00
2024-03-01T16:57:28.164Z,13.00
2024-03-01T16:59:56.974Z,13.00
2024-03-01T17:02:36.687Z,12.90
2024-03-01T17:05:23.321Z,12.90
2024-03-01T17:07:51.662Z,12.90
2024-03-01T17:10:33.459Z,12.80
2024-03-01T17:13:00.637Z,12.80
2024-03-01T17:15:29.091Z,12.70
2024-03-01T17:17:57.204Z,12.70
2024-03-01T17:20:25.414Z,12.60
2024-03-01T17:22:55.614Z,12.60
2024-03-01T17:25:22.802Z,12.50
2024-03-01T17:27:49.783Z,12.40
2024-03-01T17:30:16.705Z,12.40
2024-03-01T17:32:46.427Z,12.40
2024-03-01T17:35:16.701Z,12.30
2024-03-01T17:37:43.557Z,12.30
2024-03-01T17:40:10.650Z,12.20
2024-03-01T17:42:37.493Z,12.20
2024-03-01T17:45:05.701Z,12.10
2024-03-01T17:47:33.380Z,12.10
2024-03-01T17:50:01.001Z,12.00
2024-03-01T17:52:28.539Z,12.00
2024-03-01T17:54:55.791Z,12.00
2024-03-01T17:57:22.837Z,12.00
2024-03-01T17:59:49.891Z,11.90
2024-03-01T18:02:17.411Z,11.90
2024-03-01T18:04:49.278Z,11.80
2024-03-01T18:07:16.865Z,11.80
2024-03-01T18:09:46.795Z,11.70
2024-03-01T18:12:13.819Z,11.70
2024-03-01T18:14:40.673Z,11.70
2024-03-01T18:17:09.030Z,11.60
2024-03-01T18:19:36.080Z,11.60
2024-03-01T18:22:03.072Z,11.50
2024-03-01T18:24:30.015Z,11.50
2024-03-01T18:26:58.878Z,11.50
2024-03-01T18:29:32.690Z,11.40
2024-03-01T18:31:59.825Z,11.40
2024-03-01T18:34:27.300Z,11.30
2024-03-01T18:36:54.305Z,11.30
2024-03-01T18:39:21.321Z,11.20
2024-03-01T18:41:48.197Z,11.20
2024-03-01T18:44:15.197Z,11.10
2024-03-01T18:46:42.183Z,11.10
2024-03-01T18:49:09.596Z,11.00
2024-03-01T18:51:36.756Z,11.00
2024-03-01T18:54:04.930Z,10.90
2024-03-01T18:56:34.456Z,10.90
2024-03-01T18:59:01.508Z,10.80
2024-03-01T19:01:28.673Z,10.80
2024-03-01T19:03:56.006Z,10.70
2024-03-01T19:06:24.429Z,10.70
2024-03-01T19:08:51.278Z,10.60
2024-03-01T19:11:18.215Z,10.50
2024-03-01T19:13:45.862Z,10.50
2024-03-01T19:16:12.882Z,10.40
2024-03-01T19:18:39.783Z,10.40
2024-03-01T19:21:06.885Z,10.30
2024-03-01T19:23:33.937Z,10.30
2024-03-01T19:26:02.039Z,10.20
2024-03-01T19:28:29.135Z,10.20
2024-03-01T19:30:56.539Z,10.10
2024-03-01T19:33:26.403Z,10.10
2024-03-01T19:35:54.961Z,10.10
2024-03-01T19:38:23.010Z,10.00
2024-03-01T19:40:53.642Z,10.00
2024-03-01T19:43:23.077Z,10.00
2024-03-01T19:45:50.135Z,9.90
2024-03-01T19:48:17.614Z,9.90
2024-03-01T19:50:44.729Z,9.90
2024-03-01T19:53:11.551Z,9.80
2024-03-01T19:55:38.696Z,9.80
2024-03-01T19:58:05.542Z,9.80
2024-03-01T20:00:32.999Z,9.70
2024-03-01T20:02:59.910Z,9.70
2024-03-01T20:05:26.760Z,9.60
2024-03-01T20:07:53.843Z,9.60
2024-03-01T20:10:21.765Z,9.60
2024-03-01T20:12:48.929Z,9.50
2024-03-01T20:15:15.905Z,9.50
2024-03-01T20:17:43.066Z,9.40
2024-03-01T20:20:10.955Z,9.40
2024-03-01T20:22:37.990Z,9.40
2024-03-01T20:25:06.089Z,9.30
2024-03-01T20:27:34.043Z,9.30
2024-03-01T20:30:01.075Z,9.20
2024-03-01T20:32:27.933Z,9.20
2024-03-01T20:34:54.776Z,9.20
2024-03-01T20:37:22.435Z,9.10
2024-03-01T20:39:49.577Z,9.10
2024-03-01T20:42:16.542Z,9.10
2024-03-01T20:44:46.069Z,9.00
2024-03-01T20:47:13.242Z,9.00
2024-03-01T20:49:40.296Z,9.00
2024-03-01T20:52:09.516Z,8.90
2024-03-01T20:54:37.340Z,8.90
2024-03-01T20:57:04.687Z,8.90
2024-03-01T20:59:31.548Z,8.90
2024-03-01T21:01:58.845Z,8.80
2024-03-01T21:04:25.840Z,8.80
2024-03-01T21:06:52.740Z,8.80
2024-03-01T21:09:20.139Z,8.70
2024-03-01T21:11:47.416Z,8.70
2024-03-01T21:14:14.332Z,8.70
2024-03-01T21:16:41.750Z,8.70
2024-03-01T21:19:11.617Z,8.70
2024-03-01T21:24:08.455Z,8.60
2024-03-01T21:26:35.337Z,8.60
2024-03-01T21:29:02.185Z,8.60
2024-03-01T21:31:29.272Z,8.60
2024-03-01T21:33:56.142Z,8.50
2024-03-01T21:36:23.020Z,8.50
2024-03-01T21:38:49.886Z,8.50
2024-03-01T21:41:17.431Z,8.50
2024-03-01T21:43:44.324Z,8.50
2024-03-01T21:46:11.545Z,8.50
2024-03-01T21:48:38.389Z,8.40
2024-03-01T21:51:05.295Z,8.40
2024-03-01T21:53:33.183Z,8.40
2024-03-01T21:56:00.024Z,8.40
2024-03-01T21:58:26.843Z,8.40
2024-03-01T22:00:54.170Z,8.30
2024-03-01T22:03:21.085Z,8.30
2024-03-01T22:05:49.612Z,8.30
2024-03-01T22:08:16.474Z,8.30
2024-03-01T22:10:43.920Z,8.20
2024-03-01T22:13:12.036Z,8.20
2024-03-01T22:15:39.355Z,8.20
2024-03-01T22:18:06.826Z,8.20
2024-03-01T22:20:34.037Z,8.20
2024-03-01T22:23:02.890Z,8.10
2024-03-01T22:25:29.826Z,8.10
2024-03-01T22:27:56.873Z,8.10
2024-03-01T22:30:24.341Z,8.10
2024-03-01T22:32:53.605Z,8.00
2024-03-01T22:35:21.184Z,8.00
2024-03-01T22:37:48.260Z,8.00
2024-03-01T22:40:15.587Z,8.00
2024-03-01T22:42:42.855Z,8.00
2024-03-01T22:45:10.145Z,8.00
2024-03-01T22:47:37.052Z,8.00
2024-03-01T22:50:04.434Z,8.00
2024-03-01T22:52:33.991Z,8.00
2024-03-01T22:55:01.246Z,8.00
2024-03-01T22:57:39.709Z,8.00
2024-03-01T23:00:21.837Z,7.90
2024-03-01T23:02:53.118Z,7.90
2024-03-01T23:05:51.221Z,7.90
2024-03-01T23:08:34.944Z,7.80
2024-03-01T23:11:03.624Z,7.90
2024-03-01T23:13:42.930Z,7.80
2024-03-01T23:16:09.900Z,7.80
2024-03-01T23:18:37.013Z,7.80
2024-03-01T23:21:04.142Z,7.80
2024-03-01T23:23:30.992Z,7.80
2024-03-01T23:25:57.958Z,7.80
2024-03-01T23:28:26.850Z,7.80
2024-03-01T23:30:54.434Z,7.80
2024-03-01T23:33:21.796Z,7.80
2024-03-01T23:35:48.841Z,7.80
2024-03-01T23:38:15.648Z,7.70
2024-03-01T23:40:50.895Z,7.70
2024-03-01T23:43:24.273Z,7.70
2024-03-01T23:45:51.900Z,7.70
2024-03-01T23:48:19.388Z,7.70
2024-03-01T23:50:47.154Z,7.70
2024-03-01T23:53:18.662Z,7.70
2024-03-01T23:55:46.976Z,7.60
2024-03-01T23:58:14.152Z,7.60
